Time;durP1;ratioP1;P1;durP2;ratioP2;P2;SDS_P1;SDS_P2;PMS_P1;PMS_P2;Temp;Humidity;BMP_temperature;BMP_pressure;BME280_temperature;BME280_humidity;BME280_pressure;Samples;Min_cycle;Max_cycle;Signal;HPM_P1;HPM_P2
2022/09/28 00:01:19;;;;;;;4.62;1.85;;;;;;;12.36;97.12;97705.90;1613164;87;21590;-75
2022/09/28 00:03:49;;;;;;;5.30;2.55;;;;;;;12.35;97.19;97700.30;1612361;88;21034;-77
2022/09/28 00:06:20;;;;;;;4.80;2.25;;;;;;;12.34;96.15;97698.63;1611581;88;21110;-77
2022/09/28 00:08:50;;;;;;;4.03;2.08;;;;;;;12.34;96.37;97706.45;1615344;88;21078;-77
2022/09/28 00:11:21;;;;;;;4.58;2.35;;;;;;;12.33;96.18;97699.54;1613640;87;21014;-78
2022/09/28 00:13:52;;;;;;;7.22;2.47;;;;;;;12.32;96.79;97697.41;1612360;88;21033;-77
2022/09/28 00:16:25;;;;;;;5.28;2.37;;;;;;;12.31;96.82;97701.39;1615598;88;21035;-76
2022/09/28 00:18:54;;;;;;;6.05;2.70;;;;;;;12.31;96.49;97697.48;1616325;88;21019;-76
2022/09/28 00:21:26;;;;;;;7.85;2.65;;;;;;;12.30;96.20;97694.04;1636893;87;21060;-77
2022/09/28 00:24:13;;;;;;;7.10;2.33;;;;;;;12.28;97.16;97698.49;1621930;88;20990;-77
2022/09/28 00:26:52;;;;;;;6.67;2.55;;;;;;;12.28;97.09;97694.59;1642798;86;20997;-77
2022/09/28 00:29:27;;;;;;;5.85;2.72;;;;;;;12.27;97.24;97693.36;1635801;87;21576;-77
2022/09/28 00:32:01;;;;;;;5.70;2.70;;;;;;;12.25;96.79;97690.83;1640833;87;21045;-76
2022/09/28 00:34:33;;;;;;;;;;;;;;;12.23;97.42;97689.24;1637666;86;21061;-78
2022/09/28 00:37:02;;;;;;;7.90;2.80;;;;;;;12.20;96.38;97684.22;1632055;87;20436;-77
2022/09/28 00:39:30;;;;;;;7.00;2.50;;;;;;;12.18;96.21;97675.64;1648869;85;21033;-77
2022/09/28 00:41:58;;;;;;;9.33;3.10;;;;;;;12.18;96.26;97680.85;1661545;86;21010;-78
2022/09/28 00:44:40;;;;;;;4.97;2.50;;;;;;;12.16;96.91;97676.19;1655911;86;21448;-77
2022/09/28 00:47:48;;;;;;;6.30;2.58;;;;;;;12.13;96.92;97678.47;1655698;86;21057;-78
2022/09/28 00:50:34;;;;;;;4.67;2.65;;;;;;;12.12;96.63;97680.72;1661808;86;21530;-77
2022/09/28 00:53:09;;;;;;;6.67;2.83;;;;;;;12.09;96.24;97675.66;1665505;86;20982;-78
2022/09/28 00:55:48;;;;;;;6.17;2.60;;;;;;;12.05;96.23;97676.75;1658839;86;21049;-79
2022/09/28 00:58:27;;;;;;;6.15;2.80;;;;;;;12.02;96.50;97671.25;1657466;86;21070;-77
2022/09/28 01:00:56;;;;;;;7.78;3.80;;;;;;;12.01;96.62;97679.97;1664190;84;21593;-77
2022/09/28 01:03:28;;;;;;;7.22;2.80;;;;;;;11.97;97.73;97681.06;1661236;86;21101;-77
2022/09/28 01:06:01;;;;;;;5.78;3.08;;;;;;;12.00;96.82;97672.27;1660335;86;21010;-77
2022/09/28 01:08:31;;;;;;;7.85;4.05;;;;;;;11.98;96.69;97684.05;1657908;86;21014;-76
2022/09/28 01:11:00;;;;;;;7.42;3.95;;;;;;;11.98;96.68;97685.36;1664696;86;21074;-78
2022/09/28 01:13:31;;;;;;;9.38;4.20;;;;;;;12.01;95.99;97681.27;1668701;85;21009;-77
2022/09/28 01:16:19;;;;;;;7.22;4.05;;;;;;;12.05;95.82;97678.88;1656373;86;21022;-76
2022/09/28 01:19:32;;;;;;;11.03;4.45;;;;;;;12.07;95.90;97680.94;1660522;86;20979;-77
2022/09/28 01:22:27;;;;;;;9.43;4.25;;;;;;;12.10;96.56;97692.98;1628143;86;21922;-77
2022/09/28 01:25:01;;;;;;;7.83;3.98;;;;;;;12.16;96.05;97692.66;1664090;86;21552;-76
2022/09/28 01:27:34;;;;;;;11.73;4.10;;;;;;;12.20;95.84;97693.33;1659716;86;21017;-77
2022/09/28 01:30:08;;;;;;;;;;;;;;;12.24;95.56;97700.06;1661162;85;21490;-77
2022/09/28 01:33:09;;;;;;;9.43;4.28;;;;;;;12.26;95.39;97699.05;1654116;86;20427;-78
2022/09/28 01:35:57;;;;;;;9.45;4.60;;;;;;;12.29;95.46;97704.54;1661564;86;21474;-78
2022/09/28 01:38:29;;;;;;;7.70;4.42;;;;;;;12.29;95.29;97700.16;1659220;86;21065;-78
2022/09/28 01:40:59;;;;;;;9.90;4.58;;;;;;;12.31;94.96;97689.22;1675060;85;21454;-78
2022/09/28 01:43:29;;;;;;;16.45;6.85;;;;;;;12.29;95.46;97700.16;1674565;85;21517;-78
2022/09/28 01:46:29;;;;;;;13.10;6.65;;;;;;;12.32;95.00;97706.52;1680311;84;20990;-78
2022/09/28 01:49:01;;;;;;;11.75;6.53;;;;;;;12.31;94.67;97718.33;1682551;85;21532;-77
2022/09/28 01:51:52;;;;;;;12.20;5.55;;;;;;;12.30;94.51;97725.78;1672753;85;21033;-77
2022/09/28 01:54:37;;;;;;;25.80;9.48;;;;;;;12.28;95.25;97728.46;1672916;85;21013;-77
2022/09/28 01:57:13;;;;;;;8.55;3.92;;;;;;;12.32;95.03;97726.54;1684171;85;21007;-79
2022/09/28 01:59:47;;;;;;;10.08;4.85;;;;;;;12.31;95.33;97724.41;1654724;85;21053;-78
2022/09/28 02:02:23;;;;;;;7.53;4.25;;;;;;;12.31;94.86;97723.54;1676635;85;21080;-77
2022/09/28 02:05:00;;;;;;;10.60;4.78;;;;;;;12.32;95.01;97714.34;1670192;85;21037;-78
2022/09/28 02:07:55;;;;;;;9.85;4.40;;;;;;;12.31;95.12;97728.75;1678801;84;21513;-77
2022/09/28 02:10:27;;;;;;;9.98;4.95;;;;;;;12.25;95.64;97726.00;1606323;88;21026;-77
2022/09/28 02:13:03;;;;;;;13.60;5.47;;;;;;;12.21;95.48;97732.78;1632826;86;21094;-76
2022/09/28 02:15:57;;;;;;;9.83;4.12;;;;;;;12.13;96.59;97730.58;1653834;86;21297;-78
2022/09/28 02:18:25;;;;;;;;;;;;;;;12.20;95.07;97740.23;1660334;86;21030;-76
2022/09/28 02:21:12;;;;;;;8.95;4.62;;;;;;;12.06;96.25;97740.95;1663294;85;20115;-77
2022/09/28 02:23:45;;;;;;;14.45;4.55;;;;;;;12.07;95.72;97735.64;1654894;86;21014;-78
2022/09/28 02:26:17;;;;;;;6.85;3.60;;;;;;;12.03;96.81;97731.52;1653143;86;21050;-80
2022/09/28 02:28:44;;;;;;;7.62;3.95;;;;;;;12.03;96.18;97725.01;1662847;86;21088;-83
2022/09/28 02:31:12;;;;;;;8.05;4.17;;;;;;;12.03;95.54;97734.12;1657932;86;21554;-79
2022/09/28 02:33:43;;;;;;;7.33;3.77;;;;;;;12.00;95.35;97731.70;1658109;86;20974;-82
2022/09/28 02:36:10;;;;;;;8.90;3.72;;;;;;;12.01;95.08;97732.06;1653968;86;21046;-77
2022/09/28 02:38:39;;;;;;;9.95;4.08;;;;;;;11.94;95.07;97732.02;1655899;86;21565;-80
2022/09/28 02:41:24;;;;;;;8.53;3.47;;;;;;;11.95;95.21;97738.90;1637861;86;21487;-80
2022/09/28 02:44:03;;;;;;;7.62;3.70;;;;;;;11.91;95.59;97743.42;1647250;86;21017;-79
2022/09/28 02:46:55;;;;;;;7.50;3.35;;;;;;;11.91;95.70;97747.80;1676997;85;21438;-80
2022/09/28 02:49:44;;;;;;;5.28;2.75;;;;;;;11.94;95.83;97741.97;1674252;85;21018;-78
2022/09/28 02:52:41;;;;;;;7.83;3.30;;;;;;;12.05;95.09;97746.61;1674270;85;21635;-77
2022/09/28 02:55:32;;;;;;;6.08;3.02;;;;;;;11.99;95.29;97748.23;1672867;85;21150;-81
2022/09/28 02:58:20;;;;;;;7.30;3.50;;;;;;;11.96;95.97;97750.16;1672639;85;21001;-80
2022/09/28 03:01:22;;;;;;;8.20;3.90;;;;;;;11.96;95.90;97747.55;1668300;85;21101;-80
2022/09/28 03:04:07;;;;;;;11.57;4.10;;;;;;;11.96;95.45;97747.11;1675163;85;21042;-77
2022/09/28 03:07:04;;;;;;;12.18;4.33;;;;;;;11.96;95.78;97751.02;1676311;85;21037;-78
2022/09/28 03:09:43;;;;;;;10.15;4.85;;;;;;;11.93;96.26;97751.16;1673847;85;21513;-78
2022/09/28 03:12:14;;;;;;;9.50;4.65;;;;;;;11.94;96.14;97742.44;1651739;85;21003;-78
2022/09/28 03:14:42;;;;;;;9.90;5.30;;;;;;;11.92;95.97;97758.14;1664252;86;21006;-84
2022/09/28 03:17:10;;;;;;;8.83;4.60;;;;;;;11.89;96.16;97753.08;1659832;86;21013;-80
2022/09/28 03:19:38;;;;;;;7.15;3.90;;;;;;;11.93;96.19;97758.97;1646263;86;21864;-78
2022/09/28 03:22:06;;;;;;;6.53;3.55;;;;;;;11.94;95.62;97754.16;1654598;86;21492;-79
2022/09/28 03:24:34;;;;;;;9.13;3.65;;;;;;;11.92;96.00;97754.23;1661778;86;21505;-80
2022/09/28 03:27:02;;;;;;;10.75;4.17;;;;;;;11.94;96.31;97748.95;1654663;86;21046;-78
2022/09/28 03:29:31;;;;;;;6.33;3.60;;;;;;;11.96;96.76;97760.57;1660327;86;21785;-78
2022/09/28 03:32:01;;;;;;;7.50;3.90;;;;;;;12.01;95.60;97767.23;1660396;85;21506;-80
2022/09/28 03:34:29;;;;;;;6.80;3.50;;;;;;;11.97;96.63;97764.88;1655947;86;21022;-78
2022/09/28 03:36:56;;;;;;;9.33;3.52;;;;;;;12.00;96.18;97779.88;1657755;86;20982;-80
2022/09/28 03:39:24;;;;;;;6.47;3.42;;;;;;;11.99;95.63;97774.28;1656489;85;21014;-77
2022/09/28 03:41:52;;;;;;;7.92;3.17;;;;;;;11.94;95.92;97774.53;1658839;86;21001;-80
2022/09/28 03:44:20;;;;;;;11.60;3.85;;;;;;;11.94;96.13;97773.23;1665031;86;21014;-77
2022/09/28 03:46:48;;;;;;;5.83;3.67;;;;;;;11.94;95.83;97773.70;1662695;85;21046;-79
2022/09/28 03:49:16;;;;;;;6.17;3.22;;;;;;;11.90;96.02;97765.19;1669438;86;21097;-78
2022/09/28 03:51:43;;;;;;;6.58;3.62;;;;;;;11.89;96.03;97766.09;1659838;85;21510;-78
2022/09/28 03:54:11;;;;;;;9.63;3.85;;;;;;;11.89;96.10;97771.30;1667942;86;21093;-78
2022/09/28 03:56:40;;;;;;;7.58;3.50;;;;;;;11.89;96.47;97774.38;1663745;85;20957;-78
2022/09/28 03:59:07;;;;;;;7.53;3.35;;;;;;;11.89;96.67;97785.63;1664756;84;20998;-77
2022/09/28 04:01:36;;;;;;;9.23;3.67;;;;;;;11.92;96.14;97786.79;1659258;86;21085;-79
2022/09/28 04:04:04;;;;;;;8.88;3.30;;;;;;;11.97;95.97;97785.23;1669044;86;21026;-79
2022/09/28 04:06:32;;;;;;;8.13;3.77;;;;;;;11.99;95.86;97784.70;1664915;86;21141;-77
2022/09/28 04:08:59;;;;;;;11.33;3.37;;;;;;;12.01;95.72;97784.16;1651273;86;21005;-77
2022/09/28 04:11:27;;;;;;;10.43;4.15;;;;;;;12.00;96.15;97785.09;1663591;86;21018;-79
2022/09/28 04:13:54;;;;;;;9.88;3.67;;;;;;;12.01;96.43;97784.16;1658076;85;20998;-79
2022/09/28 04:16:23;;;;;;;8.83;3.90;;;;;;;12.03;96.26;97792.73;1661056;86;21011;-79
2022/09/28 04:18:53;;;;;;;11.22;4.47;;;;;;;12.04;95.92;97789.22;1666763;86;21493;-78
2022/09/28 04:21:22;;;;;;;7.20;3.92;;;;;;;12.06;95.96;97793.89;1617005;86;21053;-77
2022/09/28 04:23:58;;;;;;;9.08;4.83;;;;;;;12.10;95.57;97791.51;1655702;86;21034;-76
2022/09/28 04:26:27;;;;;;;9.13;4.78;;;;;;;12.15;95.26;97795.16;1661752;86;21029;-77
2022/09/28 04:31:46;;;;;;;9.30;4.42;;;;;;;12.18;95.79;97797.63;1657907;86;21142;-79
2022/09/28 04:34:18;;;;;;;9.58;4.97;;;;;;;12.20;96.30;97799.69;1664282;84;21472;-79
2022/09/28 04:36:47;;;;;;;11.25;4.58;;;;;;;12.23;96.37;97805.19;1661697;85;20974;-77
2022/09/28 04:39:16;;;;;;;7.50;3.70;;;;;;;12.27;96.19;97815.36;1663257;85;21589;-77
2022/09/28 04:41:47;;;;;;;7.65;3.83;;;;;;;12.33;96.03;97819.41;1664602;85;21620;-77
2022/09/28 04:44:15;;;;;;;7.33;4.10;;;;;;;12.35;96.05;97818.88;1660787;86;20987;-78
2022/09/28 04:46:43;;;;;;;7.60;3.58;;;;;;;12.40;95.36;97819.48;1664620;86;21006;-77
2022/09/28 04:49:28;;;;;;;10.93;3.67;;;;;;;12.39;96.20;97820.39;1668769;86;22180;-77
2022/09/28 04:52:07;;;;;;;7.45;3.80;;;;;;;12.44;95.79;97830.59;1660506;86;21022;-77
2022/09/28 04:54:35;;;;;;;8.65;3.92;;;;;;;12.47;95.50;97826.07;1667655;85;21028;-79
2022/09/28 04:57:04;;;;;;;11.03;4.92;;;;;;;12.51;95.64;97826.72;1635572;86;20996;-80
2022/09/28 04:59:32;;;;;;;14.80;5.30;;;;;;;12.55;95.44;97825.64;1665996;84;21057;-77
2022/09/28 05:02:00;;;;;;;8.55;4.30;;;;;;;12.56;95.90;97833.85;1658623;85;21078;-77
2022/09/28 05:04:46;;;;;;;8.05;3.98;;;;;;;12.60;95.32;97827.55;1659033;86;21014;-77
2022/09/28 05:07:26;;;;;;;11.00;4.12;;;;;;;12.66;95.08;97830.30;1665459;86;21545;-79
2022/09/28 05:09:54;;;;;;;8.23;4.00;;;;;;;12.67;95.11;97825.00;1667559;86;21521;-77
2022/09/28 05:12:23;;;;;;;6.80;3.52;;;;;;;12.70;95.23;97826.13;1662810;86;21640;-78
2022/09/28 05:14:52;;;;;;;7.25;3.98;;;;;;;12.74;95.33;97826.81;1666261;86;20963;-78
2022/09/28 05:17:20;;;;;;;11.78;4.85;;;;;;;12.78;95.29;97824.88;1655046;86;21010;-78
2022/09/28 05:20:08;;;;;;;9.53;4.17;;;;;;;12.82;95.54;97832.45;1660973;86;21002;-78
2022/09/28 05:22:36;;;;;;;8.28;4.42;;;;;;;12.88;95.11;97832.11;1668063;86;21006;-80
2022/09/28 05:25:06;;;;;;;13.72;4.87;;;;;;;12.93;95.17;97838.37;1664352;85;21045;-77
2022/09/28 05:27:35;;;;;;;9.30;3.95;;;;;;;13.02;94.62;97843.09;1659405;86;21578;-77
2022/09/28 05:30:09;;;;;;;11.15;4.55;;;;;;;13.10;94.56;97853.11;1662915;85;21086;-80
2022/09/28 05:32:55;;;;;;;13.00;5.22;;;;;;;13.11;94.46;97857.39;1659589;86;21006;-78
2022/09/28 05:35:29;;;;;;;11.57;5.50;;;;;;;13.14;94.25;97850.70;1659586;86;21010;-78
2022/09/28 05:38:02;;;;;;;15.83;5.47;;;;;;;13.21;94.16;97855.98;1665237;86;21021;-79
2022/09/28 05:40:30;;;;;;;20.50;5.90;;;;;;;13.25;94.19;97865.76;1657593;86;21026;-79
2022/09/28 05:43:00;;;;;;;19.90;7.08;;;;;;;13.28;94.18;97862.52;1659535;86;21057;-78
2022/09/28 05:45:28;;;;;;;12.20;5.47;;;;;;;13.31;94.26;97865.48;1661139;84;20986;-78
2022/09/28 05:47:56;;;;;;;19.15;5.08;;;;;;;13.36;93.91;97862.13;1660504;84;21023;-77
2022/09/28 05:50:24;;;;;;;16.15;5.55;;;;;;;13.41;93.70;97867.08;1657379;86;20990;-78
2022/09/28 05:53:05;;;;;;;14.75;5.50;;;;;;;13.42;93.68;97854.42;1649805;85;21066;-76
2022/09/28 05:55:33;;;;;;;13.20;4.58;;;;;;;13.47;93.67;97860.23;1670637;85;21081;-77
2022/09/28 05:58:04;;;;;;;11.95;5.08;;;;;;;13.49;93.38;97868.83;1671506;84;21077;-76
2022/09/28 06:00:33;;;;;;;12.60;4.70;;;;;;;13.51;93.54;97860.44;1667796;84;21049;-77
2022/09/28 06:03:09;;;;;;;8.93;4.87;;;;;;;13.57;93.10;97867.05;1673565;84;20984;-77
2022/09/28 06:05:38;;;;;;;11.95;4.85;;;;;;;13.56;93.16;97862.78;1662002;86;21029;-78
2022/09/28 06:08:13;;;;;;;13.80;4.60;;;;;;;13.60;92.87;97863.81;1665606;86;21000;-77
2022/09/28 06:10:40;;;;;;;8.53;4.85;;;;;;;13.61;92.98;97873.34;1660882;86;21010;-79
2022/09/28 06:13:09;;;;;;;8.48;4.90;;;;;;;13.62;92.97;97869.79;1665119;86;21048;-77
2022/09/28 06:15:38;;;;;;;7.20;4.28;;;;;;;13.66;92.96;97865.23;1666806;86;21093;-77
2022/09/28 06:18:09;;;;;;;13.15;5.15;;;;;;;13.70;93.06;97866.27;1665020;85;21037;-78
2022/09/28 06:20:42;;;;;;;9.73;4.67;;;;;;;13.74;92.89;97873.47;1659068;86;20970;-76
2022/09/28 06:23:15;;;;;;;10.48;4.60;;;;;;;13.80;93.00;97869.67;1660968;86;21033;-77
2022/09/28 06:25:43;;;;;;;9.95;4.50;;;;;;;13.85;92.60;97870.27;1669090;85;21061;-79
2022/09/28 06:28:13;;;;;;;10.10;4.55;;;;;;;13.88;92.39;97875.29;1664032;86;21033;-81
2022/09/28 06:30:42;;;;;;;8.83;4.37;;;;;;;13.90;92.83;97884.71;1663856;86;21002;-79
2022/09/28 06:33:14;;;;;;;17.52;5.72;;;;;;;14.02;92.47;97883.63;1657534;86;21050;-80
2022/09/28 06:35:42;;;;;;;8.95;4.85;;;;;;;14.07;92.51;97892.89;1656735;84;21018;-80
2022/09/28 06:38:10;;;;;;;14.05;4.55;;;;;;;14.18;92.39;97883.10;1658464;86;21002;-81
2022/09/28 06:40:38;;;;;;;8.70;4.75;;;;;;;14.23;92.33;97895.45;1668065;86;21562;-80
2022/09/28 06:43:13;;;;;;;9.90;4.70;;;;;;;14.29;92.28;97893.77;1663628;86;21612;-79
2022/09/28 06:46:00;;;;;;;11.05;4.87;;;;;;;14.37;92.37;97888.56;1663414;86;21002;-76
2022/09/28 06:48:32;;;;;;;12.53;4.67;;;;;;;14.42;92.42;97888.64;1657228;85;21020;-77
2022/09/28 06:51:01;;;;;;;9.45;4.58;;;;;;;14.53;91.88;97886.70;1658090;86;21068;-80
2022/09/28 06:53:31;;;;;;;8.73;4.47;;;;;;;14.59;91.85;97885.05;1659064;86;21146;-80
2022/09/28 06:56:01;;;;;;;8.28;4.87;;;;;;;14.71;91.88;97885.61;1672290;84;21025;-76
2022/09/28 06:58:30;;;;;;;8.98;4.92;;;;;;;14.85;91.86;97889.16;1673770;84;20980;-77
2022/09/28 07:00:59;;;;;;;10.85;5.28;;;;;;;14.96;90.30;97887.17;1665247;83;21612;-77
2022/09/28 07:03:29;;;;;;;8.98;4.70;;;;;;;15.10;91.13;97888.02;1671373;84;20998;-76
2022/09/28 07:06:01;;;;;;;10.37;4.43;;;;;;;15.20;90.26;97890.03;1666098;85;21022;-75
2022/09/28 07:08:37;;;;;;;7.25;3.90;;;;;;;15.29;89.99;97890.29;1674233;84;21530;-75
2022/09/28 07:11:07;;;;;;;6.17;3.83;;;;;;;15.37;89.42;97891.59;1663003;84;21070;-78
2022/09/28 07:13:40;;;;;;;9.78;4.55;;;;;;;15.45;88.80;97887.53;1652824;84;21534;-75
2022/09/28 07:16:08;;;;;;;15.03;4.60;;;;;;;15.60;88.66;97897.52;1664952;84;21498;-77
2022/09/28 07:18:36;;;;;;;9.95;4.90;;;;;;;15.71;88.74;97892.39;1665987;86;21050;-80
2022/09/28 07:21:06;;;;;;;7.90;4.67;;;;;;;15.80;87.15;97903.27;1658151;86;21018;-79
2022/09/28 07:23:33;;;;;;;9.70;4.15;;;;;;;15.87;87.48;97896.67;1666263;86;21061;-76
2022/09/28 07:26:06;;;;;;;9.90;4.25;;;;;;;15.91;84.85;97892.91;1665305;86;21010;-80
2022/09/28 07:28:54;;;;;;;7.78;4.22;;;;;;;15.98;85.56;97900.74;1662890;86;21022;-78
2022/09/28 07:31:42;;;;;;;7.58;3.92;;;;;;;15.94;84.51;97912.85;1664179;85;20998;-78
2022/09/28 07:34:16;;;;;;;11.93;4.40;;;;;;;15.90;84.04;97910.89;1664589;85;21048;-79
2022/09/28 07:36:48;;;;;;;9.68;4.28;;;;;;;15.99;84.56;97910.27;1661559;86;21030;-79
2022/09/28 07:39:16;;;;;;;8.18;4.25;;;;;;;16.09;85.18;97913.13;1665097;85;21137;-81
2022/09/28 07:41:43;;;;;;;9.08;4.42;;;;;;;16.12;84.01;97917.34;1664353;86;21029;-79
2022/09/28 07:44:11;;;;;;;9.18;4.97;;;;;;;16.14;84.28;97912.36;1667027;86;21138;-81
2022/09/28 07:46:42;;;;;;;8.58;4.30;;;;;;;16.12;82.53;97917.34;1660153;86;21762;-81
2022/09/28 07:49:11;;;;;;;16.02;4.87;;;;;;;16.16;83.13;97905.71;1668430;85;21083;-81
2022/09/28 07:51:57;;;;;;;8.80;3.98;;;;;;;16.25;82.64;97902.45;1665459;86;21030;-78
2022/09/28 07:54:30;;;;;;;7.78;4.47;;;;;;;16.16;81.52;97897.84;1665575;86;21542;-80
2022/09/28 07:57:08;;;;;;;9.35;3.87;;;;;;;16.19;82.49;97896.31;1657452;85;21018;-80
2022/09/28 07:59:40;;;;;;;6.05;3.25;;;;;;;16.15;81.71;97895.67;1649806;85;21026;-80
2022/09/28 08:02:26;;;;;;;7.33;3.87;;;;;;;16.15;81.68;97896.98;1659613;86;21033;-79
2022/09/28 08:04:55;;;;;;;8.83;3.83;;;;;;;16.13;81.54;97893.62;1665451;86;21024;-80
2022/09/28 08:07:24;;;;;;;6.47;3.98;;;;;;;16.13;80.09;97909.36;1661379;86;21026;-80
2022/09/28 08:09:54;;;;;;;5.78;3.15;;;;;;;16.10;80.14;97905.64;1663436;85;21043;-78
2022/09/28 08:12:27;;;;;;;11.90;4.05;;;;;;;16.15;79.98;97917.95;1660002;86;20998;-79
2022/09/28 08:14:59;;;;;;;8.15;3.87;;;;;;;16.22;79.69;97918.41;1659850;85;20982;-79
2022/09/28 08:17:35;;;;;;;7.45;3.17;;;;;;;16.24;78.90;97925.70;1666759;85;21046;-78
2022/09/28 08:22:52;;;;;;;7.15;3.20;;;;;;;16.36;78.88;97930.59;1656272;86;21745;-79
2022/09/28 08:25:20;;;;;;;7.67;3.30;;;;;;;16.37;77.77;97929.64;1666978;86;21050;-79
2022/09/28 08:27:48;;;;;;;9.45;3.25;;;;;;;16.41;77.79;97931.97;1661407;86;21003;-79
2022/09/28 08:30:16;;;;;;;6.28;3.17;;;;;;;16.53;78.53;97924.20;1669673;84;21058;-83
2022/09/28 08:32:54;;;;;;;7.62;3.20;;;;;;;16.64;78.98;97920.37;1664255;86;21030;-79
2022/09/28 08:35:40;;;;;;;8.15;3.60;;;;;;;16.73;78.17;97913.64;1657793;86;21486;-78
2022/09/28 08:38:10;;;;;;;9.15;3.72;;;;;;;16.81;77.86;97920.09;1651662;86;21006;-78
2022/09/28 08:41:14;;;;;;;11.33;3.42;;;;;;;16.89;77.48;97932.21;1657256;86;21026;-77
2022/09/28 08:44:22;;;;;;;8.05;2.95;;;;;;;16.94;76.83;97928.42;1656086;86;21179;-79
2022/09/28 08:47:01;;;;;;;7.17;2.87;;;;;;;17.03;75.66;97936.95;1628531;86;21010;-78
2022/09/28 08:49:46;;;;;;;9.03;2.60;;;;;;;17.01;74.61;97941.47;1625007;86;21062;-78
2022/09/28 08:52:37;;;;;;;6.03;3.10;;;;;;;17.01;75.51;97938.39;1653608;85;21016;-82
2022/09/28 08:55:35;;;;;;;6.97;3.35;;;;;;;16.94;74.91;97935.82;1649072;86;21005;-80
2022/09/28 08:58:14;;;;;;;4.92;2.80;;;;;;;16.94;75.29;97939.76;1651562;86;21121;-81
2022/09/28 09:00:49;;;;;;;6.25;3.33;;;;;;;17.02;75.10;97933.98;1650335;86;21040;-81
2022/09/28 09:03:31;;;;;;;6.22;3.10;;;;;;;16.92;73.70;97929.84;1672870;86;21014;-82
2022/09/28 09:06:37;;;;;;;7.45;3.10;;;;;;;16.92;73.75;97925.90;1574315;90;21068;-80
2022/09/28 09:09:27;;;;;;;6.45;2.62;;;;;;;16.95;74.12;97934.89;1623718;86;21012;-82
2022/09/28 09:12:18;;;;;;;6.65;2.92;;;;;;;17.02;74.08;97936.12;1656728;86;21016;-81
2022/09/28 09:15:08;;;;;;;5.33;2.75;;;;;;;16.97;72.94;97938.25;1664695;86;20990;-82
2022/09/28 09:17:47;;;;;;;8.13;2.77;;;;;;;17.02;73.68;97937.91;1663376;86;21006;-80
2022/09/28 09:20:48;;;;;;;6.00;2.60;;;;;;;17.01;72.72;97932.28;1638586;85;21058;-80
2022/09/28 09:23:51;;;;;;;7.30;2.62;;;;;;;17.06;71.42;97936.27;1662288;86;21081;-78
2022/09/28 09:26:24;;;;;;;5.42;2.60;;;;;;;17.10;71.39;97936.90;1659728;86;21129;-78
2022/09/28 09:29:21;;;;;;;6.05;2.58;;;;;;;17.20;72.24;97940.55;1657897;85;20979;-80
2022/09/28 09:32:29;;;;;;;12.05;3.08;;;;;;;17.27;71.44;97946.23;1657924;86;21526;-78
2022/09/28 09:35:32;;;;;;;6.03;2.50;;;;;;;17.31;72.46;97950.31;1642835;86;21046;-78
2022/09/28 09:38:52;;;;;;;9.10;3.05;;;;;;;17.34;72.01;97950.56;1650920;86;21086;-81
2022/09/28 09:42:04;;;;;;;6.97;2.75;;;;;;;17.37;72.10;97947.25;1661979;86;21058;-76
2022/09/28 09:45:12;;;;;;;4.72;2.47;;;;;;;17.57;71.77;97955.50;1600878;88;21004;-80
2022/09/28 09:47:56;;;;;;;5.03;2.40;;;;;;;17.59;71.35;97957.06;1627337;86;20984;-81
2022/09/28 09:50:43;;;;;;;6.33;2.80;;;;;;;17.64;72.06;97958.04;1657798;86;21727;-77
2022/09/28 09:53:40;;;;;;;6.17;3.00;;;;;;;17.72;72.25;97955.69;1658185;85;21009;-80
2022/09/28 09:56:14;;;;;;;6.50;2.60;;;;;;;17.76;70.39;97961.09;1660682;86;21502;-79
2022/09/28 09:58:48;;;;;;;7.60;2.52;;;;;;;17.85;70.68;97968.34;1659625;85;20982;-82
2022/09/28 10:01:34;;;;;;;6.25;2.70;;;;;;;17.89;70.85;97959.77;1659324;86;21498;-80
2022/09/28 10:04:21;;;;;;;6.62;2.80;;;;;;;18.01;70.35;97958.86;1667284;86;21010;-80
2022/09/28 10:06:54;;;;;;;5.95;2.60;;;;;;;18.01;69.25;97952.29;1665108;86;21026;-79
2022/09/28 10:09:31;;;;;;;;;;;;;;;18.21;69.94;97952.61;1668517;86;21066;-80
2022/09/28 10:12:01;;;;;;;6.05;2.58;;;;;;;18.24;69.26;97951.91;1664753;85;20109;-81
2022/09/28 10:14:29;;;;;;;5.62;2.37;;;;;;;18.27;68.45;97949.03;1661312;86;21049;-81
2022/09/28 10:17:05;;;;;;;7.35;2.40;;;;;;;18.34;69.17;97938.88;1665602;85;20991;-81
2022/09/28 10:19:55;;;;;;;7.12;2.47;;;;;;;18.45;68.70;97940.23;1626912;88;21054;-82
2022/09/28 10:22:37;;;;;;;7.78;2.40;;;;;;;18.57;68.88;97932.37;1632170;88;21039;-82
2022/09/28 10:25:08;;;;;;;5.62;2.65;;;;;;;18.64;68.52;97936.19;1648128;86;21074;-81
2022/09/28 10:27:45;;;;;;;4.53;2.12;;;;;;;18.74;68.43;97921.39;1657651;86;21002;-81
2022/09/28 10:30:22;;;;;;;4.53;2.70;;;;;;;18.87;68.76;97924.76;1661605;86;21522;-80
2022/09/28 10:32:57;;;;;;;5.35;2.37;;;;;;;18.96;65.46;97927.63;1655664;86;21520;-82
2022/09/28 10:35:28;;;;;;;5.47;2.52;;;;;;;19.05;66.64;97925.11;1627799;87;21506;-80
2022/09/28 10:38:18;;;;;;;4.12;1.70;;;;;;;19.16;66.22;97929.56;1659832;86;20998;-82
2022/09/28 10:41:09;;;;;;;3.65;1.60;;;;;;;19.22;64.16;97925.12;1654785;85;21049;-79
2022/09/28 10:44:09;;;;;;;6.35;4.05;;;;;;;19.27;62.43;97915.03;1649000;86;21549;-80
2022/09/28 10:46:41;;;;;;;5.30;2.80;;;;;;;19.43;63.78;97908.06;1637776;85;21029;-81
2022/09/28 10:49:17;;;;;;;4.55;2.20;;;;;;;19.48;62.69;97911.17;1651145;85;21026;-76
2022/09/28 10:51:52;;;;;;;7.17;1.95;;;;;;;19.61;62.31;97911.50;1657881;85;20994;-81
2022/09/28 10:54:31;;;;;;;2.87;1.57;;;;;;;19.64;62.19;97908.14;1662801;85;21026;-78
2022/09/28 10:57:00;;;;;;;3.25;1.60;;;;;;;19.70;61.81;97908.61;1662563;86;20978;-83
2022/09/28 10:59:40;;;;;;;3.90;1.90;;;;;;;19.64;61.02;97913.41;1658557;86;21479;-80
2022/09/28 11:02:20;;;;;;;3.65;1.92;;;;;;;19.67;62.56;97912.31;1650238;86;21002;-79
2022/09/28 11:04:59;;;;;;;4.85;1.67;;;;;;;19.78;61.82;97906.22;1657591;85;21616;-79
2022/09/28 11:07:32;;;;;;;5.20;1.55;;;;;;;19.73;61.18;97908.38;1647041;86;21076;-78
2022/09/28 11:10:02;;;;;;;5.22;1.52;;;;;;;19.63;61.03;97902.49;1625384;86;21008;-84
2022/09/28 11:12:40;;;;;;;5.07;1.70;;;;;;;19.56;59.92;97900.02;1660387;86;21069;-80
2022/09/28 11:15:13;;;;;;;3.40;1.87;;;;;;;19.59;60.35;97898.92;1647002;86;21066;-81
2022/09/28 11:17:42;;;;;;;;;;;;;;;19.56;59.06;97898.70;1658450;86;21010;-79
2022/09/28 11:20:32;;;;;;;2.45;1.50;;;;;;;19.53;58.68;97894.98;1653100;86;20106;-82
2022/09/28 11:23:21;;;;;;;6.95;4.28;;;;;;;19.61;58.96;97884.64;1664039;86;20974;-82
2022/09/28 11:26:05;;;;;;;5.95;2.55;;;;;;;19.84;58.44;97880.66;1649777;86;21027;-80
2022/09/28 11:28:36;;;;;;;3.90;1.50;;;;;;;20.07;59.32;97889.28;1660064;86;21009;-81
2022/09/28 11:31:08;;;;;;;4.28;1.55;;;;;;;20.36;59.05;97890.81;1657133;85;21042;-79
2022/09/28 11:33:49;;;;;;;2.80;1.40;;;;;;;20.50;57.99;97886.17;1637970;85;21037;-82
2022/09/28 11:36:44;;;;;;;2.67;1.32;;;;;;;20.64;57.64;97888.50;1658422;86;21022;-79
2022/09/28 11:39:21;;;;;;;6.70;1.47;;;;;;;20.68;55.92;97894.36;1659291;84;21010;-77
2022/09/28 11:42:11;;;;;;;3.10;1.45;;;;;;;20.73;56.08;97885.53;1658548;86;21081;-79
2022/09/28 11:44:48;;;;;;;3.42;1.52;;;;;;;20.94;56.84;97882.37;1656007;86;21097;-81
2022/09/28 11:47:45;;;;;;;4.25;1.50;;;;;;;21.28;56.62;97875.44;1665934;86;21093;-78
2022/09/28 11:50:44;;;;;;;3.60;1.40;;;;;;;21.52;55.28;97868.98;1668140;86;20997;-79
2022/09/28 11:53:23;;;;;;;4.00;1.52;;;;;;;21.88;52.73;97872.75;1658320;85;20988;-79
2022/09/28 11:56:13;;;;;;;4.28;1.37;;;;;;;22.27;53.07;97882.02;1651985;86;21028;-80
2022/09/28 11:58:58;;;;;;;4.90;1.92;;;;;;;22.47;51.80;97877.51;1646687;86;21025;-79
2022/09/28 12:02:05;;;;;;;3.80;1.40;;;;;;;22.53;52.68;97874.78;1646960;86;20992;-81
2022/09/28 12:04:43;;;;;;;4.90;1.60;;;;;;;22.56;51.89;97863.88;1652533;86;21149;-80
2022/09/28 12:07:22;;;;;;;5.35;1.92;;;;;;;22.79;52.84;97861.72;1638876;86;21022;-81
2022/09/28 12:10:07;;;;;;;5.50;2.72;;;;;;;22.93;49.41;97861.23;1646681;86;21553;-82
2022/09/28 12:12:48;;;;;;;3.50;1.80;;;;;;;23.16;52.32;97859.56;1631811;86;21013;-80
2022/09/28 12:15:52;;;;;;;3.65;1.60;;;;;;;23.31;49.31;97863.86;1643657;86;21005;-79
2022/09/28 12:18:41;;;;;;;11.33;3.02;;;;;;;23.53;50.69;97858.61;1660974;86;20996;-79
2022/09/28 12:21:35;;;;;;;4.40;1.70;;;;;;;23.59;50.69;97864.14;1652979;86;20989;-81
2022/09/28 12:24:17;;;;;;;3.47;1.45;;;;;;;23.74;49.25;97863.14;1651027;86;21037;-80
2022/09/28 12:27:06;;;;;;;3.27;1.65;;;;;;;23.80;50.42;97859.08;1647360;86;21040;-79